Time;durP1;ratioP1;P1;durP2;ratioP2;P2;SDS_P1;SDS_P2;PMS_P1;PMS_P2;Temp;Humidity;BMP_temperature;BMP_pressure;BME280_temperature;BME280_humidity;BME280_pressure;Samples;Min_cycle;Max_cycle;Signal;HPM_P1;HPM_P2
2021/05/20 04:00:59;;;;;;;45.77;32.10;;;5.20;96.30;;;;;;5658361;23;20489;-78
2021/05/20 04:03:29;;;;;;;3.50;2.87;;;5.40;96.30;;;;;;4939407;29;20423;-78
2021/05/20 04:06:02;;;;;;;1.80;1.53;;;5.50;96.30;;;;;;4956419;29;20262;-78
2021/05/20 04:08:27;;;;;;;2.10;1.80;;;5.60;96.30;;;;;;4956003;29;20411;-78
2021/05/20 04:10:54;;;;;;;2.10;1.90;;;5.60;96.30;;;;;;4956035;28;20431;-78
2021/05/20 04:13:37;;;;;;;3.47;2.30;;;5.60;96.30;;;;;;4956480;29;20175;-78
2021/05/20 04:16:04;;;;;;;2.37;2.20;;;5.70;96.30;;;;;;4957022;29;20417;-77
2021/05/20 04:18:30;;;;;;;2.43;2.23;;;5.70;96.30;;;;;;4956148;29;20418;-77
2021/05/20 04:20:56;;;;;;;2.07;1.90;;;5.80;96.30;;;;;;4956075;28;20641;-77
2021/05/20 04:23:22;;;;;;;2.50;2.30;;;5.80;96.30;;;;;;4939134;29;20171;-77
2021/05/20 04:25:48;;;;;;;2.53;2.33;;;5.90;96.30;;;;;;4955326;28;20464;-77
2021/05/20 04:28:15;;;;;;;2.73;2.53;;;5.90;96.30;;;;;;4955779;29;20171;-77
2021/05/20 04:30:41;;;;;;;2.40;2.20;;;6.00;96.30;;;;;;4956249;28;20439;-77
2021/05/20 04:33:07;;;;;;;2.53;2.33;;;6.00;96.30;;;;;;4939038;29;20466;-77
2021/05/20 04:35:33;;;;;;;2.77;2.47;;;6.10;96.30;;;;;;4938943;29;20462;-77
2021/05/20 04:37:59;;;;;;;3.30;3.00;;;6.10;96.30;;;;;;4938587;29;20591;-77
2021/05/20 04:40:25;;;;;;;2.90;2.47;;;6.10;96.30;;;;;;4955905;28;20427;-77
2021/05/20 04:42:52;;;;;;;4.43;2.67;;;6.20;96.30;;;;;;4956074;29;20481;-77
2021/05/20 04:45:18;;;;;;;5.70;3.50;;;6.20;96.30;;;;;;4955958;29;20690;-77
2021/05/20 04:47:44;;;;;;;16.83;11.37;;;6.30;96.30;;;;;;4955353;29;20959;-77
2021/05/20 04:50:12;;;;;;;21.57;15.07;;;6.40;96.30;;;;;;4955443;28;21368;-78
2021/05/20 04:52:38;;;;;;;28.20;14.80;;;6.40;96.30;;;;;;4955545;29;20407;-78
2021/05/20 04:55:04;;;;;;;5.33;3.97;;;6.50;96.30;;;;;;4938146;29;20463;-78
2021/05/20 04:57:30;;;;;;;1.93;1.77;;;6.70;96.30;;;;;;4955304;29;20398;-78
2021/05/20 04:59:55;;;;;;;1.70;1.60;;;7.00;96.30;;;;;;4955666;29;20414;-78
2021/05/20 05:02:21;;;;;;;3.00;1.40;;;7.30;96.30;;;;;;4955559;28;20217;-78
2021/05/20 05:04:46;;;;;;;1.70;1.60;;;8.00;96.30;;;;;;4938214;29;20198;-78
2021/05/20 05:07:12;;;;;;;2.30;2.10;;;9.40;96.30;;;;;;4954855;29;20175;-78
2021/05/20 05:09:37;;;;;;;1.57;1.20;;;11.10;96.30;;;;;;4955530;28;20257;-78
2021/05/20 05:12:03;;;;;;;1.10;0.87;;;13.30;96.30;;;;;;4955998;29;20579;-79
2021/05/20 05:14:29;;;;;;;1.97;0.80;;;14.80;96.30;;;;;;4951652;28;20183;-79
2021/05/20 05:16:54;;;;;;;1.83;0.80;;;14.80;96.30;;;;;;4935989;29;20175;-78
2021/05/20 05:19:20;;;;;;;1.00;0.80;;;14.20;96.30;;;;;;4939369;29;20263;-80
2021/05/20 05:21:46;;;;;;;1.10;0.80;;;13.40;96.30;;;;;;4922410;29;20242;-80
2021/05/20 05:24:11;;;;;;;2.80;0.80;;;12.10;96.30;;;;;;4921218;29;20462;-80
2021/05/20 05:26:37;;;;;;;1.53;1.10;;;12.10;96.30;;;;;;4920849;28;20178;-80
2021/05/20 05:29:03;;;;;;;1.53;1.20;;;11.80;96.30;;;;;;4973299;28;20182;-80
2021/05/20 05:31:28;;;;;;;1.70;0.90;;;11.60;96.30;;;;;;4972539;28;20206;-80
2021/05/20 05:33:54;;;;;;;1.00;0.87;;;12.00;96.30;;;;;;4954422;29;20216;-81
2021/05/20 05:36:20;;;;;;;1.87;1.20;;;12.30;96.30;;;;;;4957533;28;20318;-80
2021/05/20 05:38:46;;;;;;;1.50;1.03;;;12.50;96.30;;;;;;4957916;29;20182;-79
2021/05/20 05:41:12;;;;;;;1.20;0.97;;;12.70;96.30;;;;;;4956516;28;20443;-79
2021/05/20 05:43:37;;;;;;;2.03;1.30;;;13.00;96.30;;;;;;4954991;28;20679;-78
2021/05/20 05:46:03;;;;;;;2.93;0.90;;;13.00;96.30;;;;;;4964489;28;20567;-79
2021/05/20 05:48:29;;;;;;;1.30;1.00;;;13.00;96.30;;;;;;4954506;29;20267;-79
2021/05/20 05:50:56;;;;;;;1.77;1.30;;;13.20;96.30;;;;;;4954555;28;20199;-79
2021/05/20 05:53:22;;;;;;;1.20;0.93;;;13.00;96.30;;;;;;4937737;29;20812;-79
2021/05/20 05:55:48;;;;;;;1.87;1.40;;;12.60;96.30;;;;;;4954969;29;20406;-81
2021/05/20 05:58:13;;;;;;;1.40;1.20;;;12.50;96.30;;;;;;4954883;28;20179;-79
2021/05/20 06:00:39;;;;;;;1.80;1.20;;;12.10;96.30;;;;;;4963641;28;20226;-79
2021/05/20 06:03:06;;;;;;;2.70;1.30;;;11.70;96.30;;;;;;4947333;28;20211;-78
2021/05/20 06:05:31;;;;;;;2.80;1.40;;;11.80;96.30;;;;;;4935339;29;20199;-78
2021/05/20 06:07:57;;;;;;;4.67;1.23;;;11.70;96.30;;;;;;4934893;29;20426;-79
2021/05/20 06:10:23;;;;;;;2.60;1.77;;;11.30;96.30;;;;;;4935136;29;20636;-78
2021/05/20 06:12:49;;;;;;;4.33;1.50;;;10.70;96.30;;;;;;4944992;28;20257;-78
2021/05/20 06:15:15;;;;;;;1.37;1.20;;;10.50;96.30;;;;;;4973703;28;20170;-78
2021/05/20 06:17:40;;;;;;;2.07;1.57;;;10.60;96.30;;;;;;4973178;28;20409;-78
2021/05/20 06:20:07;;;;;;;2.37;1.50;;;10.50;96.30;;;;;;4973507;28;20184;-78
2021/05/20 06:22:33;;;;;;;3.10;1.80;;;10.30;96.30;;;;;;4968204;28;20194;-78
2021/05/20 06:24:59;;;;;;;2.20;1.80;;;10.20;96.30;;;;;;4944375;28;20552;-78
2021/05/20 06:27:26;;;;;;;2.23;1.90;;;10.20;96.30;;;;;;4948343;28;20421;-78
2021/05/20 06:29:56;;;;;;;3.70;1.53;;;10.10;96.30;;;;;;4942704;29;20175;-78
2021/05/20 06:32:22;;;;;;;3.60;2.33;;;10.50;96.30;;;;;;4953785;28;21077;-78
2021/05/20 06:34:47;;;;;;;2.10;1.43;;;10.40;96.30;;;;;;4946279;29;20415;-78
2021/05/20 06:37:14;;;;;;;1.97;1.73;;;10.60;96.30;;;;;;4933482;29;20262;-78
2021/05/20 06:39:40;;;;;;;2.03;1.70;;;11.00;96.30;;;;;;4946454;29;20731;-78
2021/05/20 06:42:14;;;;;;;9.73;1.60;;;12.60;96.30;;;;;;4952425;29;20517;-78
2021/05/20 06:44:40;;;;;;;1.60;1.50;;;14.70;96.30;;;;;;4953775;29;20489;-78
2021/05/20 06:47:07;;;;;;;3.90;1.30;;;15.50;96.30;;;;;;4934076;29;20926;-79
2021/05/20 06:49:32;;;;;;;2.40;1.30;;;17.00;96.30;;;;;;4953767;29;20419;-79
2021/05/20 06:51:58;;;;;;;1.57;1.27;;;18.50;94.80;;;;;;4953464;28;20477;-79
2021/05/20 06:54:24;;;;;;;3.53;1.40;;;19.90;88.20;;;;;;4951970;29;20179;-79
2021/05/20 06:56:54;;;;;;;1.30;1.20;;;20.00;82.30;;;;;;4953002;29;20179;-79
2021/05/20 07:02:04;;;;;;;1.43;1.20;;;17.00;95.00;;;;;;4952924;28;20478;-78
2021/05/20 07:04:30;;;;;;;2.47;1.53;;;15.80;96.30;;;;;;4951624;29;20876;-78
2021/05/20 07:07:00;;;;;;;2.93;1.20;;;14.90;96.30;;;;;;4952958;29;20180;-78
2021/05/20 07:09:27;;;;;;;1.97;1.23;;;14.70;96.30;;;;;;4942863;29;20683;-78
2021/05/20 07:11:53;;;;;;;1.60;1.50;;;14.30;96.30;;;;;;4932832;29;20432;-78
2021/05/20 07:14:18;;;;;;;1.70;1.53;;;13.80;96.30;;;;;;4952649;29;20831;-78
2021/05/20 07:16:44;;;;;;;1.13;1.00;;;12.80;96.30;;;;;;4951390;29;20186;-78
2021/05/20 07:19:09;;;;;;;1.33;1.17;;;12.40;96.30;;;;;;4953500;29;20670;-78
2021/05/20 07:21:35;;;;;;;4.10;1.20;;;12.10;96.30;;;;;;4953110;29;20209;-77
2021/05/20 07:24:00;;;;;;;2.93;1.30;;;11.90;96.30;;;;;;4949178;28;20206;-78
2021/05/20 07:26:26;;;;;;;1.37;1.20;;;11.70;96.30;;;;;;4952843;29;20258;-78
2021/05/20 07:28:51;;;;;;;3.07;1.60;;;11.60;96.30;;;;;;4951753;29;20198;-78
2021/05/20 07:31:17;;;;;;;1.77;1.47;;;11.40;96.30;;;;;;4926728;29;20207;-79
2021/05/20 07:33:42;;;;;;;1.97;1.70;;;11.20;96.30;;;;;;4934632;29;20600;-79
2021/05/20 07:36:08;;;;;;;1.50;1.40;;;11.20;96.30;;;;;;4952335;28;20191;-79
2021/05/20 07:38:33;;;;;;;1.70;1.50;;;11.30;96.30;;;;;;4936133;29;20183;-79
2021/05/20 07:40:59;;;;;;;1.63;1.40;;;11.30;96.30;;;;;;4951441;28;20765;-78
2021/05/20 07:43:24;;;;;;;1.77;1.67;;;11.50;96.30;;;;;;4953311;29;20187;-78
2021/05/20 07:45:51;;;;;;;1.27;1.17;;;11.80;96.30;;;;;;4949095;29;20217;-78
2021/05/20 07:48:17;;;;;;;1.70;1.20;;;12.00;96.30;;;;;;4927409;29;20191;-78
2021/05/20 07:50:43;;;;;;;1.63;1.43;;;11.90;96.30;;;;;;4933987;29;20436;-78
2021/05/20 07:53:12;;;;;;;2.00;1.47;;;11.90;96.30;;;;;;4933820;29;20184;-77
2021/05/20 07:55:37;;;;;;;1.67;1.10;;;11.90;96.30;;;;;;4933802;29;20651;-78
2021/05/20 07:58:05;;;;;;;1.33;1.10;;;12.30;96.30;;;;;;4941082;29;20427;-78
2021/05/20 08:00:31;;;;;;;3.73;1.20;;;12.30;96.30;;;;;;4937760;29;20270;-78
2021/05/20 08:03:14;;;;;;;1.53;1.17;;;12.40;96.30;;;;;;4952620;29;20450;-78
2021/05/20 08:05:49;;;;;;;1.67;1.47;;;12.40;96.30;;;;;;4956566;29;20458;-78
2021/05/20 08:08:28;;;;;;;1.77;1.13;;;12.90;96.30;;;;;;4955907;29;20845;-78
2021/05/20 08:10:57;;;;;;;1.30;1.10;;;13.00;96.30;;;;;;4935649;29;20486;-78
2021/05/20 08:13:23;;;;;;;2.60;1.50;;;13.40;96.30;;;;;;4936155;29;20431;-78
2021/05/20 08:15:48;;;;;;;1.87;1.50;;;13.70;96.30;;;;;;4946913;29;20474;-78
2021/05/20 08:18:15;;;;;;;2.63;1.60;;;13.40;96.30;;;;;;4952788;28;20210;-79
2021/05/20 08:20:40;;;;;;;2.00;1.67;;;13.80;96.30;;;;;;4937340;29;20325;-78
2021/05/20 08:23:06;;;;;;;2.90;1.50;;;14.20;96.30;;;;;;4955946;28;20521;-78
2021/05/20 08:25:31;;;;;;;2.20;1.63;;;14.60;96.30;;;;;;4929990;29;20696;-78
2021/05/20 08:27:57;;;;;;;1.97;1.77;;;14.30;96.30;;;;;;4934889;29;20640;-78
2021/05/20 08:30:23;;;;;;;1.73;1.63;;;14.50;96.30;;;;;;4936983;29;20595;-78
2021/05/20 08:32:49;;;;;;;1.80;1.60;;;14.40;96.30;;;;;;4918030;29;20264;-78
2021/05/20 08:35:15;;;;;;;1.83;1.37;;;14.00;96.30;;;;;;4942182;29;20234;-78
2021/05/20 08:37:41;;;;;;;1.90;1.67;;;13.50;96.30;;;;;;4947323;29;20431;-79
2021/05/20 08:40:09;;;;;;;1.47;1.27;;;13.30;96.30;;;;;;4935413;29;20945;-79
2021/05/20 08:42:35;;;;;;;1.87;1.60;;;13.30;96.30;;;;;;4953598;29;20926;-78
2021/05/20 08:45:13;;;;;;;1.50;1.27;;;12.80;96.30;;;;;;4954537;29;20461;-78
2021/05/20 08:47:39;;;;;;;2.20;1.83;;;12.80;96.30;;;;;;4955407;29;20155;-78
2021/05/20 08:50:06;;;;;;;2.00;1.80;;;13.00;96.30;;;;;;4954496;28;20423;-78
2021/05/20 08:52:33;;;;;;;2.30;1.73;;;13.20;96.30;;;;;;4954864;29;20500;-78
2021/05/20 08:54:59;;;;;;;2.43;1.73;;;13.40;96.30;;;;;;4938469;29;20923;-78
2021/05/20 08:57:25;;;;;;;4.20;1.90;;;13.90;96.30;;;;;;4953167;28;20903;-78
2021/05/20 08:59:51;;;;;;;2.43;2.00;;;13.60;96.30;;;;;;4954855;29;20513;-78
2021/05/20 09:02:29;;;;;;;1.90;1.77;;;13.00;96.30;;;;;;4935491;29;20545;-78
2021/05/20 09:05:11;;;;;;;2.70;1.80;;;12.80;96.30;;;;;;4955217;29;20450;-78
2021/05/20 09:07:42;;;;;;;4.47;2.43;;;13.10;96.30;;;;;;4953675;29;20418;-78
2021/05/20 09:10:21;;;;;;;6.07;2.47;;;14.30;96.30;;;;;;4954452;28;20888;-78
2021/05/20 09:12:50;;;;;;;4.43;2.40;;;16.00;96.30;;;;;;4955571;29;20399;-78
2021/05/20 09:15:19;;;;;;;2.90;1.80;;;17.00;96.30;;;;;;4953498;29;20468;-77
2021/05/20 09:17:45;;;;;;;1.97;1.83;;;17.30;92.90;;;;;;4937318;29;20434;-78
2021/05/20 09:20:12;;;;;;;2.93;1.70;;;16.20;94.00;;;;;;4950552;29;20430;-78
2021/05/20 09:22:38;;;;;;;3.17;1.63;;;15.10;96.30;;;;;;4954137;29;20905;-77
2021/05/20 09:25:06;;;;;;;1.90;1.70;;;14.10;96.30;;;;;;4954129;29;20570;-78
2021/05/20 09:27:43;;;;;;;2.20;2.00;;;13.40;96.30;;;;;;4953684;29;20529;-78
2021/05/20 09:30:29;;;;;;;3.10;1.80;;;12.90;96.30;;;;;;4939458;29;20453;-78
2021/05/20 09:32:58;;;;;;;1.90;1.60;;;12.50;96.30;;;;;;4953376;29;20458;-78
2021/05/20 09:35:24;;;;;;;2.57;2.33;;;12.10;96.30;;;;;;4953852;29;20543;-78
2021/05/20 09:37:56;;;;;;;2.50;2.30;;;11.80;96.30;;;;;;4932427;29;20411;-78
2021/05/20 09:40:25;;;;;;;5.47;2.00;;;11.50;96.30;;;;;;4935608;29;20424;-78
2021/05/20 09:42:51;;;;;;;5.90;2.30;;;11.70;96.30;;;;;;4934125;29;20522;-79
2021/05/20 09:45:26;;;;;;;2.13;1.50;;;12.00;96.30;;;;;;4944748;29;20908;-78
2021/05/20 09:48:01;;;;;;;2.20;1.90;;;12.20;96.30;;;;;;4936313;29;20415;-78
2021/05/20 09:50:27;;;;;;;2.47;2.00;;;12.10;96.30;;;;;;4934542;29;20475;-78
2021/05/20 09:53:00;;;;;;;2.23;1.90;;;12.00;96.30;;;;;;4935396;29;20904;-78
2021/05/20 09:55:27;;;;;;;2.20;2.00;;;12.20;96.30;;;;;;4933969;29;20166;-78
2021/05/20 09:57:54;;;;;;;2.43;2.10;;;12.50;96.30;;;;;;4954540;28;20513;-78
2021/05/20 10:00:23;;;;;;;3.87;2.73;;;12.60;96.30;;;;;;4952852;28;20482;-78
2021/05/20 10:03:18;;;;;;;3.00;2.57;;;12.80;96.30;;;;;;4953581;29;20846;-78
2021/05/20 10:06:04;;;;;;;2.77;2.53;;;13.40;96.30;;;;;;4954042;29;20457;-78
2021/05/20 10:08:32;;;;;;;3.77;1.90;;;13.80;96.30;;;;;;4952846;29;20771;-78
2021/05/20 10:11:03;;;;;;;2.60;2.40;;;14.30;96.30;;;;;;4936947;29;20431;-78
2021/05/20 10:13:29;;;;;;;1.90;1.70;;;13.90;96.30;;;;;;4942635;28;20465;-79
2021/05/20 10:15:56;;;;;;;4.93;1.80;;;13.40;96.30;;;;;;4973665;28;20775;-78
2021/05/20 10:18:24;;;;;;;6.43;1.90;;;13.00;96.30;;;;;;4971273;28;20445;-79
2021/05/20 10:21:00;;;;;;;2.40;1.90;;;12.40;96.30;;;;;;4959034;28;20442;-78
2021/05/20 10:23:26;;;;;;;2.10;1.87;;;12.20;96.30;;;;;;4953460;28;20394;-79
2021/05/20 10:25:54;;;;;;;2.30;1.87;;;12.20;96.30;;;;;;4955100;28;20553;-80
2021/05/20 10:28:20;;;;;;;4.70;2.00;;;12.10;96.30;;;;;;4957607;29;20194;-80
2021/05/20 10:30:49;;;;;;;3.30;2.13;;;12.10;96.30;;;;;;4954025;29;20524;-80
2021/05/20 10:33:16;;;;;;;2.67;2.17;;;12.00;96.30;;;;;;4939550;29;20463;-79
2021/05/20 10:35:49;;;;;;;5.73;2.67;;;11.80;96.30;;;;;;4926338;29;20431;-77
2021/05/20 10:38:36;;;;;;;3.77;2.90;;;11.50;96.30;;;;;;4932373;29;20592;-78
2021/05/20 10:41:19;;;;;;;4.50;2.20;;;11.10;96.30;;;;;;4949766;28;20450;-79
2021/05/20 10:43:47;;;;;;;3.70;2.53;;;11.30;96.30;;;;;;4936216;29;20411;-80
2021/05/20 10:46:15;;;;;;;3.20;2.00;;;11.90;96.30;;;;;;4936654;29;20511;-80
2021/05/20 10:48:53;;;;;;;2.70;2.33;;;12.70;96.30;;;;;;4920808;29;20430;-80
2021/05/20 10:51:23;;;;;;;2.83;2.50;;;13.90;96.30;;;;;;4956155;28;20426;-80
2021/05/20 10:53:49;;;;;;;2.13;1.80;;;14.90;96.30;;;;;;4954071;29;20469;-79
2021/05/20 10:56:15;;;;;;;1.73;1.50;;;14.70;96.30;;;;;;4951347;29;20502;-79
2021/05/20 10:58:43;;;;;;;2.17;1.97;;;14.30;96.30;;;;;;4934945;29;20540;-79
2021/05/20 11:01:34;;;;;;;2.00;1.70;;;13.70;96.30;;;;;;4943534;28;20234;-79
2021/05/20 11:04:02;;;;;;;5.63;1.77;;;13.00;96.30;;;;;;4953505;29;20423;-78
2021/05/20 11:06:46;;;;;;;2.33;2.13;;;12.40;96.30;;;;;;4951450;29;20473;-78
2021/05/20 11:09:16;;;;;;;3.70;1.63;;;12.40;96.30;;;;;;4950475;29;20398;-78
2021/05/20 11:11:41;;;;;;;2.03;1.70;;;12.80;96.30;;;;;;4951957;28;20453;-79
2021/05/20 11:14:27;;;;;;;4.00;1.97;;;13.60;96.30;;;;;;4953478;29;20824;-79
2021/05/20 11:16:53;;;;;;;2.50;1.47;;;14.80;96.30;;;;;;4938284;29;20187;-79
2021/05/20 11:19:30;;;;;;;2.43;1.83;;;15.10;96.30;;;;;;4952990;29;20410;-79
2021/05/20 11:22:03;;;;;;;2.40;1.57;;;14.80;96.30;;;;;;4936724;29;20446;-79
2021/05/20 11:24:37;;;;;;;2.80;1.43;;;15.30;96.30;;;;;;4952283;29;20533;-79
2021/05/20 11:27:24;;;;;;;1.77;1.53;;;16.50;96.30;;;;;;4953001;29;20453;-78
2021/05/20 11:29:50;;;;;;;4.57;1.67;;;17.20;96.30;;;;;;4951266;29;20427;-78
2021/05/20 11:32:30;;;;;;;6.63;1.60;;;17.00;96.30;;;;;;4953400;28;20849;-78
2021/05/20 11:35:32;;;;;;;2.90;1.43;;;16.90;96.30;;;;;;4953844;28;20261;-77
2021/05/20 11:37:58;;;;;;;7.67;1.43;;;16.80;94.10;;;;;;4937671;29;20791;-78
2021/05/20 11:40:26;;;;;;;1.80;1.50;;;16.30;94.10;;;;;;4949149;29;20428;-78
2021/05/20 11:42:52;;;;;;;8.00;1.30;;;16.10;96.30;;;;;;4937645;29;20644;-78
2021/05/20 11:45:25;;;;;;;2.03;1.50;;;16.50;96.30;;;;;;4937578;29;20510;-78
2021/05/20 11:47:55;;;;;;;1.63;1.30;;;16.10;95.80;;;;;;4935570;29;20208;-78
2021/05/20 11:50:23;;;;;;;2.03;1.60;;;16.60;96.30;;;;;;4938115;29;20496;-78
2021/05/20 11:52:49;;;;;;;2.37;1.90;;;17.30;96.30;;;;;;4936146;29;20413;-78
2021/05/20 11:55:14;;;;;;;3.03;1.77;;;17.40;90.20;;;;;;4937429;29;20502;-78
2021/05/20 11:57:40;;;;;;;1.87;1.70;;;17.50;96.30;;;;;;4918551;29;21035;-79
2021/05/20 12:00:06;;;;;;;2.23;2.07;;;17.80;96.10;;;;;;4936406;29;20179;-78
2021/05/20 12:02:34;;;;;;;1.73;1.63;;;17.60;88.50;;;;;;4937344;29;20223;-78
2021/05/20 12:05:04;;;;;;;2.73;2.10;;;16.60;89.40;;;;;;4935707;29;20513;-78
2021/05/20 12:07:31;;;;;;;2.10;1.90;;;16.40;89.30;;;;;;4948600;29;20951;-78
2021/05/20 12:10:17;;;;;;;2.37;1.80;;;16.40;87.60;;;;;;4951941;29;20428;-79
2021/05/20 12:12:47;;;;;;;2.10;1.63;;;15.80;92.00;;;;;;4948614;29;20446;-78
2021/05/20 12:15:14;;;;;;;3.83;1.70;;;15.40;94.50;;;;;;4943351;29;20502;-78
2021/05/20 12:17:40;;;;;;;4.67;2.30;;;14.80;93.50;;;;;;4936823;29;20431;-78
2021/05/20 12:20:06;;;;;;;5.67;1.90;;;14.20;92.80;;;;;;4939042;29;20439;-78
2021/05/20 12:22:32;;;;;;;1.90;1.53;;;13.70;95.00;;;;;;4950695;29;20942;-78
2021/05/20 12:25:11;;;;;;;4.50;2.57;;;13.50;96.30;;;;;;4942340;28;20465;-78
2021/05/20 12:27:40;;;;;;;4.23;1.63;;;13.40;96.30;;;;;;4927297;29;20183;-79
2021/05/20 12:30:08;;;;;;;2.00;1.80;;;13.20;96.30;;;;;;4937143;29;20743;-78
2021/05/20 12:32:38;;;;;;;3.30;2.00;;;13.30;96.30;;;;;;4936917;29;20446;-78
2021/05/20 12:35:19;;;;;;;5.67;2.23;;;13.50;96.30;;;;;;4918078;29;20434;-78
2021/05/20 12:37:48;;;;;;;4.77;2.47;;;13.60;96.30;;;;;;4936388;29;20415;-78
2021/05/20 12:40:15;;;;;;;4.73;2.30;;;13.70;96.30;;;;;;4942076;29;20436;-78
2021/05/20 12:42:49;;;;;;;2.73;2.53;;;13.90;96.30;;;;;;4936885;29;20920;-78
2021/05/20 12:45:15;;;;;;;2.37;2.17;;;14.20;96.30;;;;;;4949292;28;21044;-78
2021/05/20 12:47:48;;;;;;;2.60;2.30;;;15.00;96.30;;;;;;4955492;28;20426;-77
2021/05/20 12:50:29;;;;;;;2.73;2.53;;;15.50;96.30;;;;;;4949423;29;20172;-78
2021/05/20 12:52:59;;;;;;;2.33;2.13;;;16.60;96.30;;;;;;4931916;29;20430;-78
2021/05/20 12:55:41;;;;;;;2.23;1.90;;;17.20;90.20;;;;;;4954993;29;20513;-77
2021/05/20 12:58:08;;;;;;;2.00;1.80;;;17.30;90.40;;;;;;4927687;29;20451;-78
2021/05/20 13:00:59;;;;;;;4.90;2.10;;;16.60;91.10;;;;;;4947463;28;20590;-78
2021/05/20 13:03:38;;;;;;;2.80;1.67;;;15.70;88.90;;;;;;4973144;28;20417;-79
2021/05/20 13:06:03;;;;;;;3.10;1.50;;;16.30;94.90;;;;;;4979024;28;20964;-78
2021/05/20 13:08:31;;;;;;;2.87;1.70;;;16.80;90.00;;;;;;4952969;28;20430;-78
2021/05/20 13:10:57;;;;;;;3.23;2.17;;;17.70;89.10;;;;;;4954578;28;20199;-79
2021/05/20 13:13:32;;;;;;;2.03;1.67;;;17.50;91.00;;;;;;4955111;29;20399;-78
2021/05/20 13:16:13;;;;;;;2.20;2.00;;;17.80;85.80;;;;;;4953600;29;20452;-78
2021/05/20 13:19:04;;;;;;;2.17;1.97;;;17.90;84.70;;;;;;4954902;28;20429;-78
2021/05/20 13:24:20;;;;;;;2.60;1.43;;;18.20;87.20;;;;;;4940364;29;20470;-79
2021/05/20 13:26:47;;;;;;;2.23;1.50;;;18.60;88.40;;;;;;4936119;29;20415;-78
2021/05/20 13:29:12;;;;;;;1.77;1.63;;;18.90;86.30;;;;;;4952940;29;20973;-79
2021/05/20 13:31:38;;;;;;;1.63;1.53;;;19.00;86.10;;;;;;4956968;29;20430;-79
2021/05/20 13:34:05;;;;;;;2.00;1.63;;;18.90;78.30;;;;;;4954853;29;20171;-79
2021/05/20 13:36:30;;;;;;;1.60;1.50;;;18.80;83.70;;;;;;4955105;29;20174;-79
2021/05/20 13:38:56;;;;;;;2.17;1.47;;;18.40;78.80;;;;;;4950589;29;20413;-78
2021/05/20 13:41:21;;;;;;;2.07;1.47;;;17.20;80.70;;;;;;4935693;29;20191;-78
2021/05/20 13:43:47;;;;;;;2.70;1.60;;;16.10;84.00;;;;;;4953433;29;20193;-78
2021/05/20 13:46:16;;;;;;;3.10;1.60;;;15.70;87.20;;;;;;4953770;29;20191;-78
2021/05/20 13:48:41;;;;;;;2.70;1.30;;;15.40;84.80;;;;;;4954907;29;20159;-78
2021/05/20 13:51:07;;;;;;;2.00;1.80;;;15.00;86.90;;;;;;4927866;29;20463;-78
2021/05/20 13:53:33;;;;;;;2.37;2.17;;;14.80;93.00;;;;;;4942691;29;20205;-78
2021/05/20 13:55:59;;;;;;;2.23;1.60;;;14.20;92.60;;;;;;4953163;29;20407;-78
2021/05/20 13:58:24;;;;;;;7.13;2.30;;;13.90;96.10;;;;;;4953972;28;20474;-78
2021/05/20 14:00:54;;;;;;;4.03;2.40;;;13.40;95.40;;;;;;4946342;28;20216;-78
2021/05/20 14:03:21;;;;;;;3.63;2.40;;;13.10;96.30;;;;;;4955730;28;20186;-78
2021/05/20 14:05:47;;;;;;;6.27;3.07;;;12.80;96.30;;;;;;4935481;29;20541;-80
2021/05/20 14:08:12;;;;;;;3.93;2.50;;;12.40;96.30;;;;;;4961986;29;20453;-79
2021/05/20 14:10:38;;;;;;;4.07;2.60;;;12.00;96.30;;;;;;4954459;29;20207;-79
2021/05/20 14:13:04;;;;;;;4.33;3.23;;;11.80;96.30;;;;;;4951725;29;20194;-78
2021/05/20 14:15:30;;;;;;;4.67;3.80;;;11.30;96.30;;;;;;4953378;28;20241;-78
2021/05/20 14:17:55;;;;;;;3.93;3.47;;;10.90;96.30;;;;;;4945928;29;20522;-78
2021/05/20 14:20:23;;;;;;;3.97;3.47;;;10.80;96.30;;;;;;4933771;29;20247;-79
2021/05/20 14:22:49;;;;;;;4.10;3.70;;;10.80;96.30;;;;;;4954252;29;20209;-79
2021/05/20 14:25:15;;;;;;;5.63;4.20;;;10.70;96.30;;;;;;4954607;29;20490;-79
2021/05/20 14:27:42;;;;;;;5.50;4.37;;;10.80;96.30;;;;;;4955672;28;20199;-80
2021/05/20 14:30:09;;;;;;;4.80;4.40;;;10.90;96.30;;;;;;4956756;29;20449;-80
2021/05/20 14:32:35;;;;;;;3.90;3.60;;;10.90;96.30;;;;;;4937983;29;20444;-80
2021/05/20 14:35:00;;;;;;;4.40;4.00;;;10.70;96.30;;;;;;4939328;29;20422;-79
2021/05/20 14:37:26;;;;;;;3.53;3.13;;;10.70;96.30;;;;;;4946736;28;20237;-79
2021/05/20 14:39:54;;;;;;;5.77;3.47;;;10.60;96.30;;;;;;4974801;28;20213;-80
2021/05/20 14:42:22;;;;;;;4.03;3.20;;;10.80;96.30;;;;;;4975542;28;20209;-79
2021/05/20 14:44:48;;;;;;;3.83;3.53;;;11.00;96.30;;;;;;4974086;28;20834;-79
2021/05/20 14:47:13;;;;;;;3.47;2.90;;;11.20;96.30;;;;;;4959580;28;20430;-79
2021/05/20 14:54:51;;;;;;;5.83;2.10;;;12.50;96.30;;;;;;4955713;29;20417;-79
2021/05/20 14:57:33;;;;;;;2.00;1.80;;;12.60;96.30;;;;;;4954948;29;20893;-80
2021/05/20 15:05:30;;;;;;;1.70;1.53;;;14.40;96.30;;;;;;4956428;29;21013;-79
2021/05/20 15:07:55;;;;;;;1.67;1.20;;;15.10;96.30;;;;;;4955077;28;20437;-79
2021/05/20 15:10:27;;;;;;;1.60;1.50;;;15.50;96.30;;;;;;4959453;28;20426;-79
2021/05/20 15:15:28;;;;;;;1.70;1.37;;;14.90;96.30;;;;;;4939692;29;20438;-79
2021/05/20 15:18:01;;;;;;;6.37;2.10;;;14.40;96.30;;;;;;4953517;29;20824;-79
2021/05/20 15:20:28;;;;;;;3.50;1.57;;;14.40;96.30;;;;;;4940507;29;20419;-78
2021/05/20 15:22:53;;;;;;;3.33;1.70;;;14.40;96.30;;;;;;4982790;23;20515;-77
2021/05/20 15:25:22;;;;;;;4.03;1.77;;;14.40;96.30;;;;;;4976672;28;20948;-77
2021/05/20 15:27:48;;;;;;;2.20;2.00;;;14.60;96.30;;;;;;4976547;28;20540;-77
2021/05/20 15:30:14;;;;;;;2.20;1.97;;;14.80;96.30;;;;;;4977183;28;20409;-77
2021/05/20 15:32:39;;;;;;;4.03;2.10;;;14.80;96.30;;;;;;5004927;28;20566;-77
2021/05/20 15:35:06;;;;;;;2.77;2.30;;;14.80;96.30;;;;;;5015589;28;20181;-77
2021/05/20 15:37:31;;;;;;;3.37;3.07;;;14.80;96.30;;;;;;5014673;28;20196;-77
2021/05/20 15:39:58;;;;;;;3.73;2.73;;;14.50;96.30;;;;;;5015636;28;20416;-77
2021/05/20 15:42:24;;;;;;;3.10;2.53;;;14.10;96.30;;;;;;5007423;28;20193;-76
2021/05/20 15:44:50;;;;;;;3.20;2.90;;;13.80;96.30;;;;;;4995817;28;20510;-77
2021/05/20 15:47:38;;;;;;;2.63;2.10;;;13.60;96.30;;;;;;4995340;28;20423;-76
2021/05/20 15:52:41;;;;;;;2.60;1.60;;;13.10;96.30;;;;;;5004902;28;20439;-78
2021/05/20 15:55:09;;;;;;;3.83;2.43;;;13.10;96.30;;;;;;5002421;28;20427;-77
2021/05/20 15:57:36;;;;;;;2.63;2.40;;;12.90;96.30;;;;;;4976907;28;20420;-79
2021/05/20 16:00:05;;;;;;;4.67;2.13;;;12.80;96.30;;;;;;5000995;28;20413;-81
2021/05/20 16:02:31;;;;;;;1.73;1.63;;;12.80;96.30;;;;;;5003902;28;20435;-78
2021/05/20 16:05:01;;;;;;;4.80;2.33;;;13.00;96.30;;;;;;5011850;28;20463;-78
2021/05/20 16:13:05;;;;;;;5.00;2.47;;;13.20;96.30;;;;;;4945383;28;20207;-78
2021/05/20 16:15:33;;;;;;;2.40;1.97;;;12.70;96.30;;;;;;5001676;28;20420;-76
2021/05/20 16:17:59;;;;;;;2.20;2.00;;;12.40;96.30;;;;;;4995885;28;20456;-78
2021/05/20 16:20:26;;;;;;;2.10;1.90;;;12.20;96.30;;;;;;4967535;28;20468;-78
2021/05/20 16:39:21;;;;;;;2.63;1.60;;;13.80;96.30;;;;;;4982937;28;20875;-80
2021/05/20 16:41:46;;;;;;;1.70;1.60;;;14.10;96.30;;;;;;5010902;28;20447;-80
2021/05/20 16:44:12;;;;;;;2.97;1.63;;;14.20;96.30;;;;;;5014225;28;20451;-79
2021/05/20 16:46:37;;;;;;;2.40;2.10;;;14.30;96.30;;;;;;4990847;28;20248;-80
2021/05/20 16:49:03;;;;;;;1.77;1.67;;;14.50;96.30;;;;;;4998122;28;20185;-79
2021/05/20 16:51:29;;;;;;;1.80;1.70;;;14.80;95.80;;;;;;5003669;28;20179;-80
2021/05/20 16:53:55;;;;;;;1.70;1.60;;;14.70;96.30;;;;;;5014149;28;20255;-79
2021/05/20 16:56:26;;;;;;;5.10;2.40;;;14.50;96.30;;;;;;5012498;28;20508;-79
2021/05/20 16:58:51;;;;;;;2.23;1.60;;;14.60;94.70;;;;;;5014192;28;20412;-79
2021/05/20 17:01:18;;;;;;;1.40;1.00;;;14.50;92.40;;;;;;5011581;28;20416;-77
2021/05/20 17:03:43;;;;;;;1.17;1.00;;;13.90;96.00;;;;;;5011946;28;20607;-78
2021/05/20 17:06:09;;;;;;;1.60;1.33;;;13.80;96.10;;;;;;5013177;28;20454;-77
2021/05/20 17:08:35;;;;;;;1.30;0.90;;;13.60;96.30;;;;;;4996133;28;20546;-78
2021/05/20 17:11:02;;;;;;;2.20;2.00;;;13.90;96.30;;;;;;5005546;28;20173;-79
2021/05/20 17:13:32;;;;;;;5.63;4.50;;;14.00;94.10;;;;;;4994359;28;20224;-76
2021/05/20 17:15:58;;;;;;;3.43;2.77;;;14.10;93.60;;;;;;4994388;28;20432;-77
2021/05/20 17:18:24;;;;;;;7.00;2.80;;;14.20;95.60;;;;;;5001371;28;20779;-77
2021/05/20 17:20:50;;;;;;;1.83;1.27;;;14.10;93.00;;;;;;5008262;28;21048;-77
2021/05/20 17:23:15;;;;;;;1.50;1.27;;;14.00;96.30;;;;;;5007192;28;20461;-78
2021/05/20 17:25:41;;;;;;;4.17;2.37;;;14.00;96.30;;;;;;4997061;28;20279;-77
2021/05/20 17:28:07;;;;;;;1.30;1.20;;;13.80;95.60;;;;;;4993516;28;20298;-77
2021/05/20 17:30:34;;;;;;;1.70;1.60;;;13.40;95.30;;;;;;4992441;28;20192;-77
2021/05/20 17:32:59;;;;;;;2.80;1.67;;;13.30;96.30;;;;;;5001432;28;20196;-77
2021/05/20 17:35:25;;;;;;;2.00;1.40;;;13.10;96.30;;;;;;4997430;28;20838;-77
2021/05/20 17:37:50;;;;;;;2.00;1.80;;;13.00;96.30;;;;;;5005009;28;20558;-77